createdAt,value
2022-11-16T06:17:31.382Z,19.90
2022-11-16T06:20:39.159Z,19.52
2022-11-16T06:23:45.495Z,32.80
2022-11-16T06:26:52.800Z,29.95
2022-11-16T06:29:59.214Z,32.73
2022-11-16T06:33:06.887Z,27.75
2022-11-16T06:36:13.854Z,23.70
2022-11-16T06:39:22.987Z,23.62
2022-11-16T06:42:29.498Z,22.95
2022-11-16T06:45:34.381Z,23.98
2022-11-16T06:48:40.363Z,21.40
2022-11-16T06:51:47.001Z,20.75
2022-11-16T06:54:53.068Z,20.17
2022-11-16T06:58:01.520Z,22.52
2022-11-16T07:01:08.352Z,22.40
2022-11-16T07:04:16.823Z,22.75
2022-11-16T07:07:24.723Z,21.45
2022-11-16T07:10:30.162Z,21.77
2022-11-16T07:13:35.493Z,21.25
2022-11-16T07:16:44.230Z,20.20
2022-11-16T07:19:52.849Z,20.08
2022-11-16T07:22:58.696Z,18.05
2022-11-16T07:26:03.118Z,18.45
2022-11-16T07:29:10.512Z,17.12
2022-11-16T07:32:19.497Z,20.27
2022-11-16T07:35:29.188Z,19.65
2022-11-16T07:38:36.845Z,21.73
2022-11-16T07:41:42.366Z,20.43
2022-11-16T07:44:58.702Z,23.00
2022-11-16T07:48:09.672Z,22.77
2022-11-16T07:51:31.806Z,22.13
2022-11-16T07:54:41.781Z,21.73
2022-11-16T07:57:52.966Z,25.60
2022-11-16T08:00:56.398Z,25.32
2022-11-16T08:04:08.067Z,24.57
2022-11-16T08:07:13.398Z,49.50
2022-11-16T08:10:22.555Z,28.52
2022-11-16T08:13:32.234Z,24.30
2022-11-16T08:16:41.902Z,28.52
2022-11-16T08:19:52.245Z,27.52
2022-11-16T08:23:03.152Z,25.57
2022-11-16T08:26:30.509Z,27.58
2022-11-16T08:29:40.848Z,28.00
2022-11-16T08:32:50.480Z,26.65
2022-11-16T08:35:57.794Z,27.05
2022-11-16T08:39:05.479Z,25.80
2022-11-16T08:42:11.113Z,26.97
2022-11-16T08:45:17.608Z,23.92
2022-11-16T08:48:23.587Z,25.62
2022-11-16T08:51:31.270Z,25.95
2022-11-16T08:54:37.325Z,27.50
2022-11-16T08:57:44.203Z,29.77
2022-11-16T09:00:50.727Z,30.85
2022-11-16T09:04:13.044Z,32.38
2022-11-16T09:07:35.369Z,32.65
2022-11-16T09:10:41.891Z,34.88
2022-11-16T09:13:51.034Z,32.23
2022-11-16T09:16:57.705Z,32.08
2022-11-16T09:20:02.699Z,34.73
2022-11-16T09:23:10.376Z,43.33
2022-11-16T09:26:17.847Z,52.78
2022-11-16T09:29:28.337Z,42.85
2022-11-16T09:32:34.970Z,45.23
2022-11-16T09:35:42.664Z,42.43
2022-11-16T09:42:24.708Z,43.40
2022-11-16T09:45:37.211Z,40.98
2022-11-16T09:48:42.619Z,37.28
2022-11-16T09:51:49.015Z,42.17
2022-11-16T09:54:56.579Z,52.20
2022-11-16T09:58:07.823Z,48.45
2022-11-16T10:01:36.477Z,43.87
2022-11-16T10:05:03.370Z,45.40
2022-11-16T10:08:16.860Z,42.90
2022-11-16T10:11:47.617Z,40.35
2022-11-16T10:15:34.835Z,39.27
2022-11-16T10:18:51.334Z,40.23
2022-11-16T10:22:16.803Z,40.58
2022-11-16T10:25:33.988Z,40.12
2022-11-16T10:28:53.447Z,50.17
2022-11-16T10:32:13.094Z,35.80
2022-11-16T10:35:34.669Z,38.58
2022-11-16T10:38:47.067Z,39.63
2022-11-16T10:42:07.228Z,42.43
2022-11-16T10:45:27.340Z,43.70
2022-11-16T10:48:51.688Z,39.30
2022-11-16T10:52:00.764Z,48.40
2022-11-16T10:55:08.431Z,40.03
2022-11-16T10:58:20.123Z,56.37
2022-11-16T11:01:19.660Z,46.90
2022-11-16T11:04:42.935Z,37.48
2022-11-16T11:07:55.319Z,47.98
2022-11-16T11:10:59.491Z,45.75
2022-11-16T11:14:26.497Z,43.87
2022-11-16T11:17:32.283Z,47.48
2022-11-16T11:20:44.532Z,41.42
2022-11-16T11:24:42.421Z,38.67
2022-11-16T11:27:14.678Z,37.98
2022-11-16T11:30:22.778Z,52.25
2022-11-16T11:33:31.090Z,47.40
2022-11-16T11:36:41.578Z,48.10
2022-11-16T11:39:50.770Z,50.78
2022-11-16T11:42:56.967Z,52.25
2022-11-16T11:46:22.848Z,52.78
2022-11-16T11:49:43.118Z,53.02
2022-11-16T11:53:01.939Z,55.17
2022-11-16T11:56:13.363Z,57.33
2022-11-16T11:59:21.098Z,51.02
2022-11-16T12:03:12.433Z,51.23
2022-11-16T12:06:25.071Z,56.85
2022-11-16T12:09:45.189Z,53.63
2022-11-16T12:13:23.409Z,51.45
2022-11-16T12:16:35.489Z,47.30
2022-11-16T12:19:50.639Z,41.90
2022-11-16T12:23:35.775Z,49.48
2022-11-16T12:27:12.742Z,52.48
2022-11-16T12:30:35.776Z,54.15
2022-11-16T12:34:10.527Z,55.28
2022-11-16T12:37:37.518Z,48.08
2022-11-16T12:40:48.488Z,50.67
2022-11-16T12:44:15.825Z,51.23
2022-11-16T12:47:51.376Z,67.37
2022-11-16T12:51:09.878Z,47.95
2022-11-16T12:55:19.002Z,59.18
2022-11-16T12:58:48.636Z,49.58
2022-11-16T13:02:09.870Z,59.53
2022-11-16T13:05:35.206Z,45.83
2022-11-16T13:09:14.087Z,45.85
2022-11-16T13:12:26.217Z,48.20
2022-11-16T13:15:36.566Z,44.10
2022-11-16T13:18:42.256Z,46.58
2022-11-16T13:22:10.363Z,51.40
2022-11-16T13:25:31.656Z,47.20
2022-11-16T13:28:45.894Z,53.65
2022-11-16T13:32:13.857Z,44.23
2022-11-16T13:35:23.562Z,55.40
2022-11-16T13:38:30.007Z,47.23
2022-11-16T13:41:59.656Z,49.20
2022-11-16T13:45:07.561Z,50.17
2022-11-16T13:48:14.342Z,44.18
2022-11-16T13:51:21.108Z,43.15
2022-11-16T13:54:46.242Z,43.52
2022-11-16T13:57:39.179Z,49.60
2022-11-16T14:00:53.660Z,40.92
2022-11-16T14:04:07.837Z,45.50
2022-11-16T14:07:13.628Z,46.88
2022-11-16T14:10:21.882Z,44.88
2022-11-16T14:13:57.278Z,50.33
2022-11-16T14:17:08.310Z,48.40
2022-11-16T14:20:18.360Z,52.98
2022-11-16T14:23:53.135Z,59.90
2022-11-16T14:27:31.058Z,58.02
2022-11-16T14:30:46.144Z,58.28
2022-11-16T14:33:54.345Z,55.08
2022-11-16T14:37:01.704Z,61.35
2022-11-16T14:40:07.596Z,59.25
2022-11-16T14:43:21.591Z,48.87
2022-11-16T14:46:46.978Z,51.28
2022-11-16T14:49:54.390Z,49.60
2022-11-16T14:53:02.753Z,52.08
2022-11-16T14:56:08.907Z,51.08
2022-11-16T14:59:15.130Z,51.30
2022-11-16T15:02:31.083Z,44.60
2022-11-16T15:05:39.822Z,43.73
2022-11-16T15:08:55.185Z,41.20
2022-11-16T15:12:21.547Z,42.50
2022-11-16T15:15:31.628Z,42.67
2022-11-16T15:18:39.316Z,39.08
2022-11-16T15:21:45.189Z,40.67
2022-11-16T15:24:52.053Z,41.42
2022-11-16T15:28:00.081Z,43.30
2022-11-16T15:31:16.081Z,45.03
2022-11-16T15:34:22.915Z,41.95
2022-11-16T15:37:29.500Z,40.35
2022-11-16T15:40:35.339Z,38.10
2022-11-16T15:44:11.658Z,32.42
2022-11-16T15:46:52.290Z,33.63
2022-11-16T15:50:01.368Z,36.73
2022-11-16T15:53:08.749Z,35.63
2022-11-16T15:56:14.329Z,31.10
2022-11-16T15:59:43.023Z,37.98
2022-11-16T16:02:47.895Z,34.92
2022-11-16T16:05:55.964Z,36.25
2022-11-16T16:09:05.739Z,37.10
2022-11-16T16:12:33.930Z,34.65
2022-11-16T16:15:48.239Z,32.83
2022-11-16T16:19:01.640Z,38.00
2022-11-16T16:22:10.314Z,44.23
2022-11-16T16:25:21.737Z,35.98
2022-11-16T16:28:27.767Z,39.23
2022-11-16T16:31:33.762Z,37.88
2022-11-16T16:34:42.425Z,40.03
2022-11-16T16:37:49.976Z,46.98
2022-11-16T16:40:57.161Z,48.33
2022-11-16T16:44:03.983Z,56.23
2022-11-16T16:47:11.856Z,40.00
2022-11-16T16:50:18.314Z,45.00
2022-11-16T16:53:26.174Z,57.78
2022-11-16T16:56:32.180Z,49.93
2022-11-16T16:59:38.999Z,58.00
2022-11-16T17:02:43.562Z,47.55
2022-11-16T17:05:49.593Z,58.00
2022-11-16T17:08:55.999Z,67.50
2022-11-16T17:12:03.045Z,69.10
2022-11-16T17:15:15.101Z,57.43
2022-11-16T17:18:20.330Z,47.90
2022-11-16T17:21:27.553Z,45.23
2022-11-16T17:24:32.319Z,47.48
2022-11-16T17:27:38.371Z,47.23
2022-11-16T17:30:46.397Z,50.95
2022-11-16T17:33:56.474Z,47.33
2022-11-16T17:37:04.015Z,45.70
2022-11-16T17:40:10.491Z,43.20
2022-11-16T17:43:17.013Z,58.55
2022-11-16T17:46:30.547Z,51.25
2022-11-16T17:49:35.971Z,84.42
2022-11-16T17:52:45.332Z,88.50
2022-11-16T17:55:52.862Z,75.17
2022-11-16T17:59:01.893Z,71.07
2022-11-16T18:02:07.689Z,73.72
2022-11-16T18:05:14.605Z,69.72
2022-11-16T18:08:20.863Z,69.00
2022-11-16T18:11:36.266Z,70.47
2022-11-16T18:14:59.960Z,59.63
2022-11-16T18:17:50.571Z,68.45
2022-11-16T18:20:57.491Z,56.40
2022-11-16T18:24:07.729Z,51.02
2022-11-16T18:27:13.692Z,53.17
2022-11-16T18:30:21.134Z,45.30
2022-11-16T18:33:30.354Z,42.60
2022-11-16T18:36:35.101Z,41.53
2022-11-16T18:39:39.606Z,41.70
2022-11-16T18:42:45.058Z,36.85
2022-11-16T18:45:51.250Z,39.20
2022-11-16T18:48:57.165Z,38.23
2022-11-16T18:52:04.398Z,45.17
2022-11-16T18:55:10.222Z,41.58
2022-11-16T18:58:35.920Z,42.65
2022-11-16T19:01:27.797Z,47.33
2022-11-16T19:04:35.153Z,44.15
2022-11-16T19:07:44.321Z,44.00
2022-11-16T19:10:53.414Z,41.63
2022-11-16T19:14:00.272Z,38.70
2022-11-16T19:17:06.296Z,38.70
2022-11-16T19:20:14.079Z,35.73
2022-11-16T19:23:19.991Z,35.03
2022-11-16T19:26:30.169Z,37.42
2022-11-16T19:29:37.206Z,35.33
2022-11-16T19:32:43.747Z,36.60
2022-11-16T19:35:52.380Z,35.90
2022-11-16T19:39:00.111Z,40.00
2022-11-16T19:42:06.163Z,34.15
2022-11-16T19:45:12.255Z,33.78
2022-11-16T19:48:20.560Z,35.05
2022-11-16T19:51:28.602Z,34.88
2022-11-16T19:54:36.506Z,36.93
2022-11-16T19:57:43.977Z,36.53
2022-11-16T20:00:51.449Z,38.28
2022-11-16T20:03:57.207Z,36.68
2022-11-16T20:07:03.661Z,37.25
2022-11-16T20:10:11.232Z,35.60
2022-11-16T20:13:17.840Z,35.05
2022-11-16T20:16:25.030Z,34.48
2022-11-16T20:19:31.618Z,32.65
2022-11-16T20:22:39.704Z,32.60
2022-11-16T20:25:47.210Z,33.13
2022-11-16T20:28:57.521Z,31.25
2022-11-16T20:32:04.525Z,34.08
2022-11-16T20:35:12.747Z,32.38
2022-11-16T20:38:18.904Z,35.03
2022-11-16T20:41:30.953Z,33.75
2022-11-16T20:44:37.933Z,33.05
2022-11-16T20:47:43.959Z,30.15
2022-11-16T20:50:51.876Z,34.05
2022-11-16T20:53:59.407Z,34.50
2022-11-16T20:57:05.684Z,36.20
2022-11-16T21:00:12.030Z,38.65
2022-11-16T21:03:19.642Z,33.42
2022-11-16T21:06:27.256Z,33.83
2022-11-16T21:09:36.582Z,33.65
2022-11-16T21:13:00.447Z,32.42
2022-11-16T21:16:16.557Z,29.50
2022-11-16T21:19:23.236Z,30.02
2022-11-16T21:22:32.277Z,30.92
2022-11-16T21:25:38.777Z,32.28
2022-11-16T21:28:46.754Z,32.65
2022-11-16T21:31:52.325Z,33.50
2022-11-16T21:34:59.174Z,31.05
2022-11-16T21:38:06.747Z,32.83
2022-11-16T21:41:12.899Z,33.13
2022-11-16T21:44:18.591Z,32.53
2022-11-16T21:47:27.097Z,30.97
2022-11-16T21:50:34.275Z,29.10
2022-11-16T21:53:41.134Z,32.30
2022-11-16T21:56:47.846Z,34.80
2022-11-16T21:59:54.952Z,34.70
2022-11-16T22:03:03.299Z,32.20
2022-11-16T22:06:33.059Z,28.60
2022-11-16T22:09:39.618Z,33.30
2022-11-16T22:12:45.786Z,31.55
2022-11-16T22:15:51.416Z,31.60
2022-11-16T22:18:57.990Z,30.57
2022-11-16T22:22:04.470Z,30.37
2022-11-16T22:25:09.737Z,26.68
2022-11-16T22:28:20.582Z,37.45
2022-11-16T22:31:28.198Z,60.08
2022-11-16T22:34:34.861Z,79.65
2022-11-16T22:37:43.206Z,100.20
2022-11-16T22:40:49.312Z,79.42
2022-11-16T22:43:56.752Z,80.17
2022-11-16T22:47:04.980Z,77.03
2022-11-16T22:50:10.848Z,106.43
2022-11-16T22:53:18.187Z,108.80
2022-11-16T22:56:24.359Z,106.75
2022-11-16T22:59:30.152Z,96.35
2022-11-16T23:02:35.546Z,74.55
2022-11-16T23:05:41.419Z,84.67
2022-11-16T23:08:49.179Z,93.58
2022-11-16T23:12:13.460Z,60.25
2022-11-16T23:15:39.871Z,55.65
2022-11-16T23:18:44.971Z,43.58
2022-11-16T23:22:08.734Z,42.90
2022-11-16T23:25:32.319Z,36.50
2022-11-16T23:28:37.595Z,40.35
2022-11-16T23:31:42.500Z,30.97
2022-11-16T23:34:49.254Z,46.23
2022-11-16T23:38:14.809Z,51.28
2022-11-16T23:41:39.072Z,37.17
2022-11-16T23:44:45.636Z,38.35
2022-11-16T23:47:51.274Z,38.45
2022-11-16T23:50:57.472Z,26.85
2022-11-16T23:54:07.191Z,24.20
2022-11-16T23:57:13.384Z,33.65
